createdAt,value
2023-04-20T00:00:34.788Z,35.08
2023-04-20T00:01:30.502Z,35.08
2023-04-20T00:02:30.739Z,35.08
2023-04-20T00:03:31.196Z,35.08
2023-04-20T00:04:31.950Z,35.08
2023-04-20T00:05:42.095Z,35.08
2023-04-20T00:06:31.233Z,35.40
2023-04-20T00:07:33.874Z,34.76
2023-04-20T00:08:31.614Z,35.08
2023-04-20T00:09:31.846Z,35.08
2023-04-20T00:10:32.977Z,34.76
2023-04-20T00:11:32.256Z,34.76
2023-04-20T00:12:32.405Z,34.76
2023-04-20T00:13:32.570Z,34.76
2023-04-20T00:14:32.737Z,34.76
2023-04-20T00:15:35.395Z,34.76
2023-04-20T00:16:33.328Z,34.76
2023-04-20T00:17:34.539Z,34.76
2023-04-20T00:18:33.723Z,34.76
2023-04-20T00:19:33.837Z,34.76
2023-04-20T00:21:25.038Z,34.76
2023-04-20T00:22:27.305Z,34.76
2023-04-20T00:23:25.506Z,34.76
2023-04-20T00:24:27.108Z,34.76
2023-04-20T00:25:26.857Z,34.76
2023-04-20T00:26:26.997Z,34.76
2023-04-20T00:27:28.234Z,34.43
2023-04-20T00:28:28.390Z,34.76
2023-04-20T00:29:26.613Z,34.76
2023-04-20T00:30:27.740Z,34.76
2023-04-20T00:31:27.948Z,34.76
2023-04-20T00:32:29.229Z,34.76
2023-04-20T00:33:27.377Z,35.08
2023-04-20T00:34:27.564Z,34.76
2023-04-20T00:35:33.218Z,34.76
2023-04-20T00:36:27.868Z,34.43
2023-04-20T00:37:31.701Z,34.43
2023-04-20T00:38:29.820Z,34.43
2023-04-20T00:39:28.574Z,34.43
2023-04-20T00:40:30.686Z,34.76
2023-04-20T00:41:29.811Z,34.43
2023-04-20T00:42:29.103Z,34.43
2023-04-20T00:43:29.273Z,34.76
2023-04-20T00:44:29.574Z,34.76
2023-04-20T00:45:32.746Z,34.43
2023-04-20T00:46:29.919Z,34.43
2023-04-20T00:47:32.625Z,34.43
2023-04-20T00:48:30.317Z,34.43
2023-04-20T00:49:30.473Z,34.43
2023-04-20T00:50:32.589Z,34.11
2023-04-20T00:51:30.750Z,34.43
2023-04-20T00:52:32.870Z,34.43
2023-04-20T00:53:30.996Z,34.11
2023-04-20T00:54:31.266Z,34.11
2023-04-20T00:55:31.496Z,34.11
2023-04-20T00:56:31.769Z,34.43
2023-04-20T00:57:31.971Z,34.11
2023-04-20T00:58:34.387Z,34.43
2023-04-20T00:59:34.506Z,34.43
2023-04-20T01:00:34.208Z,34.11
2023-04-20T01:01:34.871Z,34.43
2023-04-20T01:02:34.819Z,34.43
2023-04-20T01:03:34.320Z,34.43
2023-04-20T01:04:33.322Z,34.43
2023-04-20T01:06:33.611Z,34.43
2023-04-20T01:07:36.847Z,34.43
2023-04-20T01:08:33.997Z,34.76
2023-04-20T01:09:34.167Z,34.76
2023-04-20T01:10:34.325Z,34.43
2023-04-20T01:11:34.452Z,34.43
2023-04-20T01:12:34.564Z,34.43
2023-04-20T01:13:34.734Z,34.43
2023-04-20T01:14:34.866Z,34.43
2023-04-20T01:15:37.070Z,34.43
2023-04-20T01:16:35.265Z,34.43
2023-04-20T01:17:37.016Z,34.76
2023-04-20T01:18:36.648Z,34.43
2023-04-20T01:19:35.832Z,34.43
2023-04-20T01:20:37.988Z,34.43
2023-04-20T01:21:38.113Z,34.43
2023-04-20T01:22:36.251Z,34.11
2023-04-20T01:23:36.456Z,34.43
2023-04-20T01:24:37.778Z,34.43
2023-04-20T01:25:37.941Z,34.43
2023-04-20T01:26:38.723Z,34.11
2023-04-20T01:27:38.332Z,34.43
2023-04-20T01:28:37.449Z,34.43
2023-04-20T01:29:38.571Z,34.43
2023-04-20T01:30:39.732Z,34.43
2023-04-20T01:31:37.877Z,34.11
2023-04-20T01:32:39.051Z,34.43
2023-04-20T01:33:38.207Z,34.43
2023-04-20T01:34:40.858Z,34.11
2023-04-20T01:35:45.811Z,34.43
2023-04-20T01:36:41.456Z,34.43
2023-04-20T01:37:40.580Z,34.76
2023-04-20T01:38:41.203Z,34.43
2023-04-20T01:39:39.471Z,34.43
2023-04-20T01:40:39.719Z,34.76
2023-04-20T01:41:41.816Z,34.43
2023-04-20T01:42:40.214Z,34.43
2023-04-20T01:43:41.458Z,34.76
2023-04-20T01:44:42.563Z,34.11
2023-04-20T01:45:42.324Z,34.43
2023-04-20T01:46:42.500Z,34.43
2023-04-20T01:47:42.288Z,34.76
2023-04-20T01:48:43.549Z,34.76
2023-04-20T01:49:41.712Z,34.76
2023-04-20T01:50:42.986Z,34.43
2023-04-20T01:51:44.072Z,34.76
2023-04-20T01:52:42.252Z,34.43
2023-04-20T01:53:43.570Z,35.08
2023-04-20T01:54:44.671Z,34.76
2023-04-20T01:55:45.444Z,34.76
2023-04-20T01:56:44.061Z,34.76
2023-04-20T01:57:43.241Z,35.08
2023-04-20T01:58:44.389Z,34.76
2023-04-20T01:59:43.573Z,35.08
2023-04-20T02:00:44.811Z,34.76
2023-04-20T02:01:46.134Z,34.76
2023-04-20T02:02:46.401Z,34.76
2023-04-20T02:03:46.846Z,34.76
2023-04-20T02:04:44.645Z,35.08
2023-04-20T02:05:46.917Z,35.08
2023-04-20T02:06:44.949Z,35.08
2023-04-20T02:07:46.044Z,35.08
2023-04-20T02:08:45.162Z,34.76
2023-04-20T02:09:45.453Z,35.08
2023-04-20T02:10:45.602Z,35.08
2023-04-20T02:11:45.826Z,35.08
2023-04-20T02:12:46.935Z,34.76
2023-04-20T02:13:47.557Z,35.08
2023-04-20T02:14:48.896Z,35.08
2023-04-20T02:15:46.592Z,35.08
2023-04-20T02:16:47.841Z,34.76
2023-04-20T02:17:49.005Z,35.08
2023-04-20T02:18:47.182Z,34.76
2023-04-20T02:19:47.313Z,34.76
2023-04-20T02:20:47.455Z,34.76
2023-04-20T02:21:47.924Z,35.08
2023-04-20T02:22:48.650Z,34.76
2023-04-20T02:23:48.339Z,34.76
2023-04-20T02:24:48.521Z,34.76
2023-04-20T02:25:50.819Z,34.76
2023-04-20T02:26:49.004Z,34.76
2023-04-20T02:27:50.117Z,35.08
2023-04-20T02:28:49.273Z,35.08
2023-04-20T02:29:50.362Z,35.08
2023-04-20T02:30:51.019Z,35.08
2023-04-20T02:31:52.620Z,35.08
2023-04-20T02:32:49.802Z,35.08
2023-04-20T02:33:50.893Z,34.76
2023-04-20T02:34:50.033Z,35.08
2023-04-20T02:35:53.145Z,35.08
2023-04-20T02:36:50.344Z,35.08
2023-04-20T02:37:51.502Z,35.08
2023-04-20T02:38:50.655Z,35.08
2023-04-20T02:39:52.731Z,35.40
2023-04-20T02:40:51.892Z,35.40
2023-04-20T02:41:51.059Z,35.08
2023-04-20T02:42:52.179Z,35.08
2023-04-20T02:43:53.180Z,35.08
2023-04-20T02:44:52.910Z,34.76
2023-04-20T02:45:53.614Z,34.43
2023-04-20T02:46:54.291Z,34.76
2023-04-20T02:47:53.471Z,35.08
2023-04-20T02:48:55.375Z,34.76
2023-04-20T02:49:52.996Z,35.08
2023-04-20T02:50:54.117Z,34.76
2023-04-20T02:51:55.294Z,34.76
2023-04-20T02:52:54.733Z,34.76
2023-04-20T02:53:54.873Z,34.76
2023-04-20T02:54:55.994Z,34.76
2023-04-20T02:55:56.289Z,34.76
2023-04-20T02:56:57.804Z,34.76
2023-04-20T02:57:56.773Z,34.76
2023-04-20T02:58:54.923Z,34.76
2023-04-20T02:59:57.038Z,34.76
2023-04-20T03:00:55.234Z,34.76
2023-04-20T03:01:57.566Z,34.76
2023-04-20T03:02:57.851Z,34.76
2023-04-20T03:03:56.263Z,34.43
2023-04-20T03:04:58.983Z,34.43
2023-04-20T03:05:59.777Z,34.43
2023-04-20T03:06:56.984Z,34.43
2023-04-20T03:07:58.204Z,34.43
2023-04-20T03:08:59.297Z,34.43
2023-04-20T03:09:57.464Z,34.76
2023-04-20T03:10:57.595Z,34.76
2023-04-20T03:11:57.769Z,34.43
2023-04-20T03:12:58.898Z,34.43
2023-04-20T03:13:59.073Z,34.43
2023-04-20T03:14:58.228Z,34.43
2023-04-20T03:15:58.483Z,34.43
2023-04-20T03:16:58.809Z,34.43
2023-04-20T03:18:01.025Z,34.43
2023-04-20T03:18:59.207Z,34.76
2023-04-20T03:19:59.926Z,34.76
2023-04-20T03:20:59.608Z,34.43
2023-04-20T03:22:00.749Z,34.76
2023-04-20T03:22:59.900Z,34.76
2023-04-20T03:24:00.041Z,34.76
2023-04-20T03:25:00.177Z,34.76
2023-04-20T03:26:01.473Z,34.43
2023-04-20T03:27:00.651Z,34.76
2023-04-20T03:28:02.259Z,34.76
2023-04-20T03:29:02.849Z,34.43
2023-04-20T03:30:02.268Z,34.76
2023-04-20T03:31:02.910Z,34.43
2023-04-20T03:32:03.661Z,34.76
2023-04-20T03:33:01.838Z,34.76
2023-04-20T03:34:03.533Z,34.76
2023-04-20T03:35:02.159Z,34.76
2023-04-20T03:36:06.956Z,34.43
2023-04-20T03:37:02.684Z,34.43
2023-04-20T03:38:04.308Z,34.76
2023-04-20T03:39:02.970Z,34.43
2023-04-20T03:40:03.167Z,34.43
2023-04-20T03:41:03.372Z,34.76
2023-04-20T03:42:03.578Z,34.11
2023-04-20T03:43:04.660Z,34.11
2023-04-20T03:44:04.676Z,34.11
2023-04-20T03:45:05.814Z,34.43
2023-04-20T03:46:04.986Z,34.11
2023-04-20T03:47:04.260Z,34.11
2023-04-20T03:48:04.450Z,34.43
2023-04-20T03:49:04.627Z,34.11
2023-04-20T03:50:04.806Z,33.79
2023-04-20T03:51:07.535Z,34.43
2023-04-20T03:52:05.221Z,34.11
2023-04-20T03:53:06.313Z,34.11
2023-04-20T03:54:05.471Z,34.11
2023-04-20T03:55:06.595Z,34.11
2023-04-20T03:56:05.728Z,34.43
2023-04-20T03:57:05.908Z,34.43
2023-04-20T03:58:06.104Z,34.43
2023-04-20T03:59:06.300Z,34.43
2023-04-20T04:00:06.454Z,34.11
2023-04-20T04:01:06.630Z,34.43
2023-04-20T04:02:06.904Z,34.43
2023-04-20T04:03:09.287Z,34.43
2023-04-20T04:04:07.474Z,34.43
2023-04-20T04:05:08.671Z,34.76
2023-04-20T04:06:09.886Z,34.43
2023-04-20T04:07:09.222Z,34.43
2023-04-20T04:08:08.368Z,34.43
2023-04-20T04:09:08.504Z,34.43
2023-04-20T04:10:08.685Z,34.43
2023-04-20T04:11:08.821Z,34.43
2023-04-20T04:12:08.969Z,34.43
2023-04-20T04:13:09.142Z,34.43
2023-04-20T04:14:11.322Z,34.43
2023-04-20T04:15:11.461Z,34.76
2023-04-20T04:16:10.596Z,34.43
2023-04-20T04:17:09.854Z,34.43
2023-04-20T04:18:11.005Z,34.43
2023-04-20T04:19:10.892Z,34.43
2023-04-20T04:20:10.531Z,34.76
2023-04-20T04:21:12.742Z,34.76
2023-04-20T04:22:12.032Z,34.43
2023-04-20T04:23:11.147Z,34.76
2023-04-20T04:24:12.345Z,34.43
2023-04-20T04:25:12.064Z,34.76
2023-04-20T04:26:13.722Z,34.43
2023-04-20T04:27:12.857Z,34.76
2023-04-20T04:28:11.989Z,34.43
2023-04-20T04:29:12.191Z,34.43
2023-04-20T04:30:12.336Z,34.43
2023-04-20T04:31:12.606Z,34.43
2023-04-20T04:32:12.849Z,34.43
2023-04-20T04:33:12.998Z,34.43
2023-04-20T04:34:13.168Z,34.43
2023-04-20T04:35:15.422Z,34.76
2023-04-20T04:36:14.978Z,34.76
2023-04-20T04:37:15.623Z,34.76
2023-04-20T04:38:13.754Z,34.76
2023-04-20T04:39:15.742Z,34.43
2023-04-20T04:40:14.144Z,34.43
2023-04-20T04:41:14.295Z,34.43
2023-04-20T04:42:14.462Z,34.43
2023-04-20T04:43:15.213Z,34.43
2023-04-20T04:44:15.177Z,34.11
2023-04-20T04:45:15.539Z,34.11
2023-04-20T04:46:18.771Z,34.43
2023-04-20T04:47:17.017Z,34.43
2023-04-20T04:48:18.133Z,34.43
2023-04-20T04:49:16.650Z,34.43
2023-04-20T04:50:17.747Z,34.43
2023-04-20T04:51:17.087Z,34.11
2023-04-20T04:52:17.778Z,34.43
2023-04-20T04:53:19.389Z,34.11
2023-04-20T04:54:20.008Z,34.43
2023-04-20T04:55:17.792Z,34.43
2023-04-20T04:56:18.050Z,34.76
2023-04-20T04:57:19.175Z,34.43
2023-04-20T04:58:18.320Z,34.43
2023-04-20T04:59:18.710Z,34.43
2023-04-20T05:00:20.983Z,34.43
2023-04-20T05:01:19.632Z,34.43
2023-04-20T05:02:18.883Z,34.43
2023-04-20T05:03:22.085Z,34.43
2023-04-20T05:04:20.420Z,34.43
2023-04-20T05:05:22.420Z,34.43
2023-04-20T05:06:22.873Z,34.43
2023-04-20T05:07:20.695Z,34.43
2023-04-20T05:08:23.721Z,34.43
2023-04-20T05:09:22.833Z,34.43
2023-04-20T05:10:21.155Z,34.43
2023-04-20T05:11:21.516Z,34.43
2023-04-20T05:12:22.737Z,34.11
2023-04-20T05:13:22.516Z,34.11
2023-04-20T05:14:22.268Z,34.43
2023-04-20T05:15:24.891Z,34.43
2023-04-20T05:16:22.591Z,34.11
2023-04-20T05:17:27.350Z,34.11
2023-04-20T05:18:25.045Z,34.11
2023-04-20T05:19:25.850Z,34.43
2023-04-20T05:20:26.089Z,34.11
2023-04-20T05:21:24.898Z,34.11
2023-04-20T05:22:24.355Z,34.11
2023-04-20T05:23:25.452Z,34.11
2023-04-20T05:24:27.528Z,34.43
2023-04-20T05:25:26.859Z,34.43
2023-04-20T05:26:25.094Z,34.43
2023-04-20T05:27:25.403Z,34.11
2023-04-20T05:28:25.756Z,34.11
2023-04-20T05:29:26.178Z,34.11
2023-04-20T05:30:28.276Z,34.11
2023-04-20T05:31:26.883Z,34.11
2023-04-20T05:32:26.734Z,34.11
2023-04-20T05:33:28.028Z,34.11
2023-04-20T05:34:27.491Z,34.11
2023-04-20T05:35:29.713Z,34.11
2023-04-20T05:36:29.836Z,34.43
2023-04-20T05:37:30.673Z,34.11
2023-04-20T05:38:30.509Z,34.11
2023-04-20T05:39:30.516Z,34.11
2023-04-20T05:40:30.886Z,34.11
2023-04-20T05:41:29.766Z,34.11
2023-04-20T05:42:30.121Z,33.79
2023-04-20T05:43:29.770Z,33.79
2023-04-20T05:44:30.853Z,33.79
2023-04-20T05:45:29.999Z,33.79
2023-04-20T05:46:30.399Z,33.79
2023-04-20T05:47:30.737Z,33.79
2023-04-20T05:48:31.871Z,33.79
2023-04-20T05:49:31.322Z,33.79
2023-04-20T05:50:33.650Z,33.79
2023-04-20T05:51:33.146Z,33.79
2023-04-20T05:52:33.300Z,34.11
2023-04-20T05:53:33.516Z,33.79
2023-04-20T05:54:34.669Z,33.79
2023-04-20T05:55:34.397Z,33.79
2023-04-20T05:56:34.255Z,33.79
2023-04-20T05:57:35.133Z,33.79
2023-04-20T05:58:36.801Z,33.79
2023-04-20T05:59:34.152Z,33.79
2023-04-20T06:00:34.336Z,33.79
2023-04-20T06:01:35.774Z,33.79
2023-04-20T06:02:35.718Z,34.11
2023-04-20T06:03:37.645Z,33.79
2023-04-20T06:04:36.015Z,33.79
2023-04-20T06:05:41.158Z,33.79
2023-04-20T06:06:39.434Z,33.79
2023-04-20T06:07:40.978Z,33.79
2023-04-20T06:08:36.408Z,33.79
2023-04-20T06:09:40.893Z,34.11
2023-04-20T06:10:45.778Z,33.79
2023-04-20T06:11:39.234Z,33.79
2023-04-20T06:12:39.651Z,33.79
2023-04-20T06:13:37.836Z,33.79
2023-04-20T06:14:39.106Z,33.79
2023-04-20T06:15:58.417Z,33.79
2023-04-20T06:16:41.062Z,33.79
2023-04-20T06:17:44.437Z,33.79
2023-04-20T06:19:39.437Z,33.79
2023-04-20T06:20:42.189Z,33.79
2023-04-20T06:21:55.185Z,33.79
2023-04-20T06:22:40.159Z,34.11
2023-04-20T06:25:00.024Z,34.11
2023-04-20T06:26:18.420Z,34.11
2023-04-20T06:26:45.564Z,34.11
2023-04-20T06:27:44.196Z,34.11
2023-04-20T06:28:42.646Z,34.11
2023-04-20T06:29:43.810Z,34.11
2023-04-20T06:30:45.627Z,34.11
2023-04-20T06:31:44.704Z,34.43
2023-04-20T06:32:44.791Z,34.43
2023-04-20T06:33:43.680Z,34.43
2023-04-20T06:34:43.896Z,34.11
2023-04-20T06:35:45.175Z,33.79
2023-04-20T06:36:46.760Z,34.11
2023-04-20T06:37:43.978Z,34.11
2023-04-20T06:38:46.788Z,34.43
2023-04-20T06:39:46.337Z,34.43
2023-04-20T06:40:44.676Z,34.43
2023-04-20T06:41:46.591Z,34.11
2023-04-20T06:42:48.004Z,34.11
2023-04-20T06:43:46.666Z,34.11
2023-04-20T06:44:48.865Z,34.11
2023-04-20T06:45:47.083Z,34.11
2023-04-20T06:46:50.660Z,34.11
2023-04-20T06:47:47.644Z,34.11
2023-04-20T06:48:47.418Z,34.43
2023-04-20T06:49:48.657Z,34.11
2023-04-20T06:50:47.691Z,34.11
2023-04-20T06:51:46.965Z,34.76
2023-04-20T06:52:48.300Z,35.40
2023-04-20T06:54:08.323Z,35.08
2023-04-20T06:54:52.183Z,35.08
2023-04-20T06:55:52.147Z,35.08
2023-04-20T06:56:48.487Z,35.08
2023-04-20T06:58:00.320Z,35.08
2023-04-20T06:58:50.296Z,35.40
2023-04-20T06:59:50.311Z,35.40
2023-04-20T07:00:52.696Z,35.40
2023-04-20T07:01:51.710Z,35.08
2023-04-20T07:02:54.233Z,35.72
2023-04-20T07:05:03.659Z,35.72
2023-04-20T07:06:55.390Z,35.40
2023-04-20T07:07:51.670Z,35.40
2023-04-20T07:08:55.848Z,35.72
2023-04-20T07:09:53.029Z,35.40
2023-04-20T07:10:54.046Z,35.40
2023-04-20T07:11:55.837Z,35.08
2023-04-20T07:13:01.889Z,35.08
2023-04-20T07:13:55.022Z,35.40
2023-04-20T07:14:54.416Z,35.40
2023-04-20T07:15:55.092Z,35.40
2023-04-20T07:16:54.661Z,35.40
2023-04-20T07:17:55.084Z,35.40
2023-04-20T07:18:54.561Z,35.40
2023-04-20T07:19:54.800Z,35.08
2023-04-20T07:20:55.136Z,35.08
2023-04-20T07:21:56.337Z,35.40
2023-04-20T07:22:55.725Z,35.08
2023-04-20T07:23:55.347Z,35.08
2023-04-20T07:24:58.122Z,35.40
2023-04-20T07:25:58.348Z,35.08
2023-04-20T07:26:59.473Z,35.40
2023-04-20T07:27:57.180Z,35.08
2023-04-20T07:28:57.561Z,35.08
2023-04-20T07:29:58.579Z,35.08
2023-04-20T07:30:59.485Z,35.08
2023-04-20T07:31:59.798Z,35.40
2023-04-20T07:32:59.250Z,35.08
2023-04-20T07:33:59.344Z,35.40
2023-04-20T07:34:59.213Z,35.08
2023-04-20T07:36:09.355Z,35.08
2023-04-20T07:37:00.418Z,35.08
2023-04-20T07:38:00.944Z,35.08
2023-04-20T07:39:04.008Z,35.08
2023-04-20T07:39:59.756Z,35.08
2023-04-20T07:41:00.044Z,35.40
2023-04-20T07:42:00.555Z,35.08
2023-04-20T07:43:01.595Z,35.08
2023-04-20T07:44:00.967Z,35.08
2023-04-20T07:45:00.912Z,35.40
2023-04-20T07:46:02.277Z,35.08
2023-04-20T07:47:02.522Z,35.08
2023-04-20T07:48:02.425Z,35.08
2023-04-20T07:49:02.024Z,35.40
2023-04-20T07:50:01.478Z,35.08
2023-04-20T07:51:02.265Z,35.40
2023-04-20T07:52:15.108Z,35.08
2023-04-20T07:53:02.195Z,35.08
2023-04-20T07:54:03.178Z,34.76
2023-04-20T07:55:02.590Z,35.08
2023-04-20T07:56:03.304Z,35.08
2023-04-20T07:57:03.400Z,35.08
2023-04-20T07:58:05.131Z,35.08
2023-04-20T07:59:05.254Z,35.40
2023-04-20T08:00:09.296Z,35.40
2023-04-20T08:01:03.191Z,35.08
2023-04-20T08:02:06.793Z,35.08
2023-04-20T08:03:04.651Z,35.08
2023-04-20T08:04:06.183Z,35.08
2023-04-20T08:05:06.476Z,35.08
2023-04-20T08:06:07.185Z,35.08
2023-04-20T08:07:05.495Z,35.40
2023-04-20T08:08:04.850Z,35.40
2023-04-20T08:09:06.572Z,35.40
2023-04-20T08:10:07.105Z,35.08
2023-04-20T08:11:06.430Z,35.40
2023-04-20T08:12:08.404Z,35.40
2023-04-20T08:13:06.663Z,35.40
2023-04-20T08:14:07.106Z,35.40
2023-04-20T08:15:12.720Z,35.40
2023-04-20T08:16:07.698Z,35.40
2023-04-20T08:17:14.707Z,35.40
2023-04-20T08:18:09.376Z,35.08
2023-04-20T08:19:08.892Z,35.40
2023-04-20T08:20:08.820Z,35.40
2023-04-20T08:21:16.117Z,35.40
2023-04-20T08:24:05.696Z,35.40
2023-04-20T08:24:27.075Z,35.40
2023-04-20T08:25:27.204Z,35.40
2023-04-20T08:26:24.580Z,35.40
2023-04-20T08:27:25.185Z,35.40
2023-04-20T08:29:26.838Z,35.40
2023-04-20T08:30:28.479Z,35.72
2023-04-20T08:31:27.511Z,35.72
2023-04-20T08:32:27.553Z,35.40
2023-04-20T08:33:27.720Z,35.40
2023-04-20T08:34:28.379Z,33.79
2023-04-20T08:35:26.844Z,33.47
2023-04-20T08:36:27.141Z,33.47
2023-04-20T08:37:26.542Z,33.79
2023-04-20T08:38:33.817Z,33.47
2023-04-20T08:39:27.194Z,33.47
2023-04-20T08:40:32.513Z,33.47
2023-04-20T08:41:27.868Z,33.47
2023-04-20T08:42:37.064Z,33.79
2023-04-20T08:43:30.213Z,33.47
2023-04-20T08:44:30.764Z,33.47
2023-04-20T08:45:29.663Z,33.47
2023-04-20T08:46:31.368Z,33.47
2023-04-20T08:47:36.064Z,33.47
2023-04-20T08:48:30.209Z,33.47
2023-04-20T08:49:31.604Z,33.47
2023-04-20T08:50:31.253Z,33.47
2023-04-20T08:51:30.221Z,33.79
2023-04-20T08:52:36.498Z,33.47
2023-04-20T08:53:32.908Z,33.47
2023-04-20T08:54:33.849Z,33.79
2023-04-20T08:55:31.551Z,33.47
2023-04-20T08:56:37.426Z,33.47
2023-04-20T08:57:34.110Z,33.47
2023-04-20T08:58:33.530Z,33.47
2023-04-20T08:59:33.906Z,33.47
2023-04-20T09:00:36.371Z,33.47
2023-04-20T09:01:35.937Z,33.47
2023-04-20T09:02:44.255Z,33.79
2023-04-20T09:03:40.436Z,33.47
2023-04-20T09:04:35.714Z,33.79
2023-04-20T09:06:34.693Z,33.79
2023-04-20T09:07:35.221Z,34.11
2023-04-20T09:08:36.271Z,33.79
2023-04-20T09:09:36.112Z,33.79
2023-04-20T09:10:37.063Z,33.79
2023-04-20T09:11:36.122Z,33.79
2023-04-20T09:12:35.946Z,33.79
2023-04-20T09:13:39.950Z,33.79
2023-04-20T09:14:48.164Z,33.79
2023-04-20T09:15:36.484Z,34.11
2023-04-20T09:16:36.397Z,33.79
2023-04-20T09:17:37.830Z,33.79
2023-04-20T09:18:37.716Z,33.79
2023-04-20T09:19:37.917Z,33.79
2023-04-20T09:20:40.027Z,33.79
2023-04-20T09:22:01.333Z,33.79
2023-04-20T09:22:38.528Z,33.7
2023-04-20T09:23:38.428Z,33.7
2023-04-20T09:24:39.570Z,34.1
2023-04-20T09:25:48.210Z,34.1
2023-04-20T09:28:20.188Z,34.1
2023-04-20T09:29:22.594Z,34.4
2023-04-20T09:30:20.576Z,34.4
2023-04-20T09:31:21.000Z,34.4
2023-04-20T09:32:23.106Z,34.1
2023-04-20T09:33:21.329Z,34.1
2023-04-20T09:34:22.011Z,34.1
2023-04-20T09:35:22.582Z,34.1
2023-04-20T09:36:22.155Z,34.4
2023-04-20T09:37:23.238Z,34.4
2023-04-20T09:38:23.729Z,34.4
2023-04-20T09:39:23.145Z,34.7
2023-04-20T09:40:22.301Z,34.4
2023-04-20T09:41:23.634Z,34.4
2023-04-20T09:42:23.024Z,34.7
2023-04-20T09:43:24.595Z,34.4
2023-04-20T09:44:25.612Z,34.7
2023-04-20T09:45:27.957Z,34.7
2023-04-20T09:46:25.603Z,34.7
2023-04-20T09:47:23.901Z,34.7
2023-04-20T09:48:26.161Z,35.0
2023-04-20T09:49:25.915Z,35.0
2023-04-20T09:50:31.859Z,35.0
2023-04-20T09:51:25.477Z,35.0
2023-04-20T09:52:25.349Z,35.0
2023-04-20T09:53:35.208Z,35.0
2023-04-20T09:54:25.014Z,35.0
2023-04-20T09:55:26.586Z,35.0
2023-04-20T09:56:26.461Z,35.0
2023-04-20T09:57:26.538Z,35.4
2023-04-20T09:58:25.749Z,35.4
2023-04-20T09:59:26.252Z,35.4
2023-04-20T10:00:27.506Z,35.0
2023-04-20T10:01:28.435Z,35.0
2023-04-20T10:02:27.122Z,35.0
2023-04-20T10:03:30.286Z,35.0
2023-04-20T10:04:28.601Z,35.0
2023-04-20T10:05:29.103Z,34.7
2023-04-20T10:06:36.188Z,35.0
2023-04-20T10:07:30.831Z,34.7
2023-04-20T10:09:00.884Z,35.0
2023-04-20T10:09:29.771Z,34.7
2023-04-20T10:10:29.576Z,35.0
2023-04-20T10:11:40.443Z,35.0
2023-04-20T10:12:30.528Z,35.0
2023-04-20T10:13:30.174Z,35.0
2023-04-20T10:14:31.417Z,35.0
2023-04-20T10:15:30.468Z,35.0
2023-04-20T10:16:32.357Z,35.0
2023-04-20T10:17:31.091Z,35.0
2023-04-20T10:18:30.511Z,34.7
2023-04-20T10:19:32.155Z,35.0
2023-04-20T10:20:31.358Z,35.0
2023-04-20T10:21:32.321Z,35.0
2023-04-20T10:22:31.426Z,35.0
2023-04-20T10:23:31.845Z,35.0
2023-04-20T10:24:33.430Z,35.0
2023-04-20T10:25:32.906Z,35.0
2023-04-20T10:26:39.708Z,35.0
2023-04-20T10:27:34.616Z,35.0
2023-04-20T10:28:32.913Z,35.0
2023-04-20T10:29:36.475Z,35.0
2023-04-20T10:30:36.646Z,35.0
2023-04-20T10:31:37.517Z,35.0
2023-04-20T10:32:36.126Z,35.4
2023-04-20T10:33:42.177Z,35.4
2023-04-20T10:34:33.930Z,35.4
2023-04-20T10:35:39.124Z,34.7
2023-04-20T10:37:11.716Z,34.4
2023-04-20T10:37:34.844Z,34.4
2023-04-20T10:39:34.838Z,34.4
2023-04-20T10:40:41.910Z,34.4
2023-04-20T10:41:39.016Z,34.4
2023-04-20T10:42:36.720Z,34.4
2023-04-20T10:43:36.868Z,34.4
2023-04-20T10:44:37.387Z,34.4
2023-04-20T10:45:37.965Z,34.7
2023-04-20T10:46:36.617Z,34.7
2023-04-20T10:47:41.654Z,34.7
2023-04-20T10:48:37.879Z,34.7
2023-04-20T10:49:38.757Z,34.7
2023-04-20T10:50:38.828Z,34.7
2023-04-20T10:51:43.916Z,34.7
2023-04-20T10:52:39.205Z,34.7
2023-04-20T10:53:43.073Z,34.4
2023-04-20T10:54:48.521Z,34.7
2023-04-20T10:55:39.249Z,34.4
2023-04-20T10:56:56.209Z,34.4
2023-04-20T10:57:39.436Z,34.7
2023-04-20T10:58:42.821Z,34.4
2023-04-20T10:59:41.075Z,34.7
2023-04-20T11:00:40.095Z,34.7
2023-04-20T11:01:40.132Z,34.4
2023-04-20T11:02:41.097Z,34.7
2023-04-20T11:03:40.496Z,35.0
2023-04-20T11:04:41.326Z,35.0
2023-04-20T11:05:46.414Z,35.0
2023-04-20T11:06:43.921Z,34.7
2023-04-20T11:07:41.563Z,35.0
2023-04-20T11:08:44.082Z,35.0
2023-04-20T11:09:41.268Z,35.4
2023-04-20T11:10:41.850Z,34.7
2023-04-20T11:11:41.451Z,34.7
2023-04-20T11:12:42.314Z,35.0
2023-04-20T11:13:50.414Z,35.0
2023-04-20T11:14:44.466Z,35.4
2023-04-20T11:15:42.012Z,35.0
2023-04-20T11:16:50.784Z,34.7
2023-04-20T11:17:43.424Z,35.0
2023-04-20T11:18:42.518Z,35.0
2023-04-20T11:19:44.027Z,35.0
2023-04-20T11:20:44.176Z,35.0
2023-04-20T11:21:42.939Z,35.0
2023-04-20T11:22:47.511Z,35.4
2023-04-20T11:23:44.090Z,35.0
2023-04-20T11:24:47.029Z,35.0
2023-04-20T11:25:44.744Z,34.7
2023-04-20T11:26:43.728Z,35.0
2023-04-20T11:27:43.895Z,35.0
2023-04-20T11:28:44.174Z,35.7
2023-04-20T11:29:44.539Z,35.4
2023-04-20T11:30:43.876Z,35.0
2023-04-20T11:31:44.455Z,35.4
2023-04-20T11:32:44.508Z,35.0
2023-04-20T11:33:44.922Z,35.4
2023-04-20T11:34:48.023Z,35.4
2023-04-20T11:35:48.756Z,35.0
2023-04-20T11:36:48.001Z,35.0
2023-04-20T11:37:44.664Z,35.0
2023-04-20T11:38:46.065Z,35.0
2023-04-20T11:39:46.819Z,35.0
2023-04-20T11:40:46.027Z,35.0
2023-04-20T11:41:46.555Z,35.0
2023-04-20T11:42:49.197Z,34.7
2023-04-20T11:43:46.894Z,35.0
2023-04-20T11:44:46.056Z,35.4
2023-04-20T11:45:46.930Z,35.0
2023-04-20T11:46:50.487Z,35.0
2023-04-20T11:47:46.241Z,35.4
2023-04-20T11:48:47.675Z,35.4
2023-04-20T11:49:46.976Z,35.4
2023-04-20T11:50:47.475Z,35.4
2023-04-20T11:51:47.976Z,35.4
2023-04-20T11:52:48.138Z,35.0
2023-04-20T11:53:47.688Z,35.0
2023-04-20T11:54:47.568Z,35.0
2023-04-20T11:55:49.293Z,35.0
2023-04-20T11:56:51.899Z,35.0
2023-04-20T11:57:47.712Z,35.0
2023-04-20T11:58:47.969Z,35.0
2023-04-20T11:59:49.317Z,35.0
2023-04-20T12:00:49.658Z,35.0
2023-04-20T12:01:57.117Z,35.0
2023-04-20T12:02:52.135Z,35.4
2023-04-20T12:03:50.550Z,35.4
2023-04-20T12:04:49.435Z,35.0
2023-04-20T12:05:51.671Z,35.0
2023-04-20T12:06:49.537Z,35.0
2023-04-20T12:07:49.973Z,35.0
2023-04-20T12:08:50.586Z,35.0
2023-04-20T12:09:51.299Z,35.0
2023-04-20T12:10:51.582Z,35.4
2023-04-20T12:11:52.062Z,35.0
2023-04-20T12:12:50.801Z,35.4
2023-04-20T12:13:51.881Z,35.4
2023-04-20T12:14:52.371Z,35.4
2023-04-20T12:15:52.319Z,35.0
2023-04-20T12:16:52.552Z,35.4
2023-04-20T12:17:51.997Z,35.4
2023-04-20T12:18:53.459Z,35.4
2023-04-20T12:19:54.241Z,35.4
2023-04-20T12:20:55.244Z,35.4
2023-04-20T12:21:53.781Z,35.4
2023-04-20T12:22:55.982Z,35.4
2023-04-20T12:23:53.400Z,35.4
2023-04-20T12:24:53.675Z,35.4
2023-04-20T12:25:54.887Z,35.4
2023-04-20T12:26:56.688Z,35.4
2023-04-20T12:27:57.509Z,35.4
2023-04-20T12:28:56.986Z,35.4
2023-04-20T12:29:56.172Z,35.4
2023-04-20T12:30:55.480Z,35.4
2023-04-20T12:31:55.866Z,35.4
2023-04-20T12:32:58.021Z,35.4
2023-04-20T12:33:57.342Z,35.4
2023-04-20T12:34:59.145Z,35.4
2023-04-20T12:35:58.680Z,35.4
2023-04-20T12:36:57.701Z,35.4
2023-04-20T12:37:59.176Z,35.4
2023-04-20T12:38:57.515Z,35.4
2023-04-20T12:39:59.345Z,35.4
2023-04-20T12:40:58.864Z,35.4
2023-04-20T12:41:58.521Z,35.7
2023-04-20T12:42:58.936Z,35.4
2023-04-20T12:44:02.080Z,35.4
2023-04-20T12:45:01.408Z,35.4
2023-04-20T12:45:58.625Z,35.4
2023-04-20T12:47:00.890Z,35.7
2023-04-20T12:48:00.663Z,35.7
2023-04-20T12:49:00.711Z,35.7
2023-04-20T12:50:01.351Z,35.7
2023-04-20T12:51:01.292Z,35.7
2023-04-20T12:52:02.182Z,35.4
2023-04-20T12:53:01.793Z,35.4
2023-04-20T12:54:01.945Z,35.4
2023-04-20T12:55:03.077Z,35.4
2023-04-20T12:56:02.065Z,35.7
2023-04-20T12:57:02.273Z,35.7
2023-04-20T12:58:02.439Z,35.7
2023-04-20T12:59:02.503Z,35.7
2023-04-20T13:00:02.608Z,35.4
2023-04-20T13:01:02.849Z,35.7
2023-04-20T13:02:03.682Z,35.7
2023-04-20T13:03:03.602Z,35.7
2023-04-20T13:04:03.510Z,35.7
2023-04-20T13:05:02.949Z,35.4
2023-04-20T13:06:04.133Z,35.4
2023-04-20T13:07:04.874Z,35.7
2023-04-20T13:08:05.593Z,35.7
2023-04-20T13:09:04.697Z,35.7
2023-04-20T13:10:04.808Z,35.4
2023-04-20T13:11:05.033Z,35.4
2023-04-20T13:12:05.166Z,35.4
2023-04-20T13:13:05.253Z,35.4
2023-04-20T13:14:06.367Z,35.4
2023-04-20T13:15:05.928Z,35.4